createdAt,value
2023-05-24T00:00:00.565Z,73.00
2023-05-24T00:02:28.152Z,73.10
2023-05-24T00:07:27.772Z,73.40
2023-05-24T00:09:54.830Z,73.50
2023-05-24T00:12:21.709Z,73.60
2023-05-24T00:14:49.705Z,73.80
2023-05-24T00:17:16.605Z,73.90
2023-05-24T00:19:43.711Z,74.00
2023-05-24T00:22:11.950Z,74.10
2023-05-24T00:24:38.907Z,74.20
2023-05-24T00:27:06.850Z,74.30
2023-05-24T00:29:33.829Z,74.40
2023-05-24T00:32:00.768Z,74.40
2023-05-24T00:34:27.782Z,74.50
2023-05-24T00:36:54.698Z,74.60
2023-05-24T00:39:22.569Z,74.80
2023-05-24T00:41:49.678Z,74.80
2023-05-24T00:44:16.622Z,74.90
2023-05-24T00:46:44.044Z,75.00
2023-05-24T00:49:11.145Z,75.00
2023-05-24T00:51:38.598Z,75.10
2023-05-24T00:54:06.994Z,75.10
2023-05-24T00:56:34.354Z,75.20
2023-05-24T00:59:03.219Z,75.20
2023-05-24T01:01:31.373Z,75.30
2023-05-24T01:03:59.679Z,75.30
2023-05-24T01:06:28.574Z,75.30
2023-05-24T01:09:17.330Z,75.40
2023-05-24T01:12:03.095Z,75.40
2023-05-24T01:14:35.372Z,75.40
2023-05-24T01:17:04.974Z,75.40
2023-05-24T01:20:02.459Z,75.40
2023-05-24T01:22:51.323Z,75.50
2023-05-24T01:25:43.027Z,75.50
2023-05-24T01:28:12.457Z,75.50
2023-05-24T01:30:41.827Z,75.60
2023-05-24T01:33:09.964Z,75.70
2023-05-24T01:35:40.513Z,75.70
2023-05-24T01:38:08.182Z,75.70
2023-05-24T01:40:36.954Z,75.70
2023-05-24T01:43:24.019Z,75.80
2023-05-24T01:45:56.918Z,75.80
2023-05-24T01:48:26.669Z,75.90
2023-05-24T01:50:58.213Z,75.90
2023-05-24T01:53:32.810Z,75.90
2023-05-24T01:56:03.358Z,76.00
2023-05-24T01:58:31.404Z,76.00
2023-05-24T02:00:58.377Z,76.00
2023-05-24T02:03:25.663Z,76.00
2023-05-24T02:05:54.018Z,76.10
2023-05-24T02:08:21.329Z,76.10
2023-05-24T02:10:48.413Z,76.10
2023-05-24T02:13:18.184Z,76.10
2023-05-24T02:15:45.312Z,76.10
2023-05-24T02:18:13.181Z,76.70
2023-05-24T02:20:40.791Z,76.10
2023-05-24T02:23:07.979Z,76.10
2023-05-24T02:25:34.896Z,76.10
2023-05-24T02:28:02.081Z,76.10
2023-05-24T02:30:29.030Z,76.10
2023-05-24T02:32:56.312Z,76.10
2023-05-24T02:35:23.315Z,76.10
2023-05-24T02:37:50.296Z,76.10
2023-05-24T02:40:17.416Z,76.10
2023-05-24T02:42:44.337Z,76.10
2023-05-24T02:45:11.495Z,76.10
2023-05-24T02:47:38.524Z,76.10
2023-05-24T02:50:06.563Z,76.10
2023-05-24T02:52:33.499Z,76.10
2023-05-24T02:55:00.417Z,76.10
2023-05-24T02:57:28.864Z,76.10
2023-05-24T02:59:56.180Z,76.10
2023-05-24T03:02:23.351Z,76.10
2023-05-24T03:04:50.440Z,76.10
2023-05-24T03:07:17.451Z,76.10
2023-05-24T03:09:44.390Z,76.10
2023-05-24T03:12:11.566Z,76.10
2023-05-24T03:14:38.470Z,76.10
2023-05-24T03:17:05.739Z,76.10
2023-05-24T03:19:32.637Z,76.00
2023-05-24T03:21:59.654Z,76.10
2023-05-24T03:24:26.967Z,76.00
2023-05-24T03:26:53.895Z,76.00
2023-05-24T03:29:20.910Z,76.00
2023-05-24T03:31:48.277Z,76.00
2023-05-24T03:34:15.298Z,76.00
2023-05-24T03:36:42.329Z,76.00
2023-05-24T03:39:09.572Z,76.00
2023-05-24T03:41:36.562Z,76.60
2023-05-24T03:44:03.511Z,76.00
2023-05-24T03:46:30.581Z,76.10
2023-05-24T03:48:57.499Z,76.10
2023-05-24T03:51:29.495Z,76.00
2023-05-24T03:53:57.549Z,76.10
2023-05-24T03:56:25.010Z,76.10
2023-05-24T03:58:52.432Z,76.10
2023-05-24T04:01:33.345Z,76.10
2023-05-24T04:04:02.175Z,76.10
2023-05-24T04:06:30.103Z,76.10
2023-05-24T04:08:58.458Z,76.10
2023-05-24T04:11:29.025Z,76.10
2023-05-24T04:13:57.716Z,76.10
2023-05-24T04:16:26.403Z,76.10
2023-05-24T04:18:57.013Z,76.10
2023-05-24T04:21:24.320Z,76.10
2023-05-24T04:23:51.227Z,76.10
2023-05-24T04:26:18.502Z,76.10
2023-05-24T04:28:48.744Z,76.20
2023-05-24T04:31:16.566Z,76.20
2023-05-24T04:33:43.662Z,76.20
2023-05-24T04:36:11.753Z,76.20
2023-05-24T04:38:39.790Z,76.20
2023-05-24T04:41:07.389Z,76.30
2023-05-24T04:43:35.103Z,76.30
2023-05-24T04:46:02.335Z,76.30
2023-05-24T04:48:29.241Z,76.40
2023-05-24T04:50:57.447Z,76.40
2023-05-24T04:53:25.288Z,76.40
2023-05-24T04:55:53.131Z,76.50
2023-05-24T04:58:20.254Z,76.50
2023-05-24T05:00:47.366Z,76.60
2023-05-24T05:03:14.436Z,76.60
2023-05-24T05:05:41.452Z,76.80
2023-05-24T05:08:08.433Z,76.90
2023-05-24T05:10:36.262Z,77.00
2023-05-24T05:13:03.400Z,77.10
2023-05-24T05:15:30.818Z,77.20
2023-05-24T05:17:57.858Z,77.20
2023-05-24T05:20:25.254Z,77.30
2023-05-24T05:22:52.433Z,77.30
2023-05-24T05:25:19.525Z,77.50
2023-05-24T05:27:46.495Z,77.60
2023-05-24T05:30:13.764Z,77.70
2023-05-24T05:32:40.837Z,77.70
2023-05-24T05:35:08.417Z,77.80
2023-05-24T05:37:35.314Z,77.80
2023-05-24T05:40:02.381Z,77.80
2023-05-24T05:42:29.301Z,77.80
2023-05-24T05:44:56.541Z,77.90
2023-05-24T05:47:23.527Z,77.90
2023-05-24T05:49:50.411Z,77.90
2023-05-24T05:52:17.444Z,77.90
2023-05-24T05:54:44.404Z,78.00
2023-05-24T05:57:11.766Z,78.00
2023-05-24T05:59:38.719Z,77.70
2023-05-24T06:02:07.001Z,77.30
2023-05-24T06:04:34.416Z,76.70
2023-05-24T06:07:01.530Z,76.30
2023-05-24T06:09:28.533Z,75.80
2023-05-24T06:11:55.676Z,75.30
2023-05-24T06:14:25.093Z,74.90
2023-05-24T06:16:54.784Z,74.30
2023-05-24T06:19:22.108Z,73.90
2023-05-24T06:21:50.650Z,74.00
2023-05-24T06:24:22.327Z,72.90
2023-05-24T06:26:50.594Z,72.40
2023-05-24T06:29:20.532Z,72.00
2023-05-24T06:31:48.329Z,71.50
2023-05-24T06:34:19.116Z,71.10
2023-05-24T06:36:47.983Z,70.70
2023-05-24T06:39:16.226Z,70.20
2023-05-24T06:41:44.614Z,69.90
2023-05-24T06:44:11.837Z,69.40
2023-05-24T06:46:39.307Z,69.10
2023-05-24T06:49:07.169Z,68.70
2023-05-24T06:51:34.435Z,68.30
2023-05-24T06:54:01.664Z,68.00
2023-05-24T06:56:29.152Z,67.70
2023-05-24T06:58:57.057Z,67.30
2023-05-24T07:01:24.084Z,67.00
2023-05-24T07:03:51.095Z,66.80
2023-05-24T07:06:18.861Z,66.60
2023-05-24T07:08:45.756Z,66.40
2023-05-24T07:11:12.772Z,66.20
2023-05-24T07:13:39.816Z,66.00
2023-05-24T07:16:07.067Z,65.70
2023-05-24T07:18:33.969Z,65.50
2023-05-24T07:21:01.334Z,65.30
2023-05-24T07:23:29.684Z,65.10
2023-05-24T07:25:56.636Z,64.90
2023-05-24T07:28:23.595Z,64.80
2023-05-24T07:30:51.347Z,64.50
2023-05-24T07:33:18.494Z,64.40
2023-05-24T07:35:51.299Z,64.20
2023-05-24T07:38:18.670Z,64.10
2023-05-24T07:40:47.028Z,63.90
2023-05-24T07:43:14.028Z,63.80
2023-05-24T07:45:41.387Z,63.70
2023-05-24T07:48:08.650Z,63.50
2023-05-24T07:50:37.327Z,63.40
2023-05-24T07:53:05.499Z,63.30
2023-05-24T07:55:32.519Z,63.20
2023-05-24T07:57:59.443Z,63.00
2023-05-24T08:00:29.499Z,63.00
2023-05-24T08:02:56.765Z,62.90
2023-05-24T08:05:24.127Z,62.80
2023-05-24T08:07:51.414Z,62.70
2023-05-24T08:10:19.650Z,62.70
2023-05-24T08:12:46.855Z,62.70
2023-05-24T08:15:13.793Z,62.70
2023-05-24T08:17:41.334Z,62.70
2023-05-24T08:20:15.576Z,62.70
2023-05-24T08:22:43.041Z,62.70
2023-05-24T08:25:11.768Z,62.70
2023-05-24T08:27:38.743Z,62.70
2023-05-24T08:30:07.170Z,62.70
2023-05-24T08:32:34.584Z,62.70
2023-05-24T08:35:18.318Z,62.60
2023-05-24T08:37:48.169Z,63.20
2023-05-24T08:40:15.372Z,62.50
2023-05-24T08:42:42.633Z,62.50
2023-05-24T08:45:13.292Z,62.60
2023-05-24T08:47:41.230Z,62.60
2023-05-24T08:50:09.054Z,62.70
2023-05-24T08:52:37.019Z,62.60
2023-05-24T08:55:07.613Z,62.60
2023-05-24T08:57:39.435Z,62.60
2023-05-24T09:00:10.065Z,62.50
2023-05-24T09:02:39.396Z,62.50
2023-05-24T09:05:10.211Z,62.40
2023-05-24T09:07:37.488Z,62.30
2023-05-24T09:10:06.240Z,62.30
2023-05-24T09:12:38.145Z,62.30
2023-05-24T09:15:07.470Z,62.30
2023-05-24T09:17:38.544Z,62.30
2023-05-24T09:20:11.360Z,62.20
2023-05-24T09:22:42.120Z,62.30
2023-05-24T09:25:11.490Z,62.30
2023-05-24T09:27:39.041Z,62.40
2023-05-24T09:30:11.122Z,62.50
2023-05-24T09:32:38.688Z,63.20
2023-05-24T09:35:09.998Z,62.60
2023-05-24T09:37:38.958Z,62.70
2023-05-24T09:40:09.083Z,62.70
2023-05-24T09:42:36.127Z,62.80
2023-05-24T09:45:09.313Z,62.80
2023-05-24T09:47:38.415Z,62.80
2023-05-24T09:50:11.723Z,62.70
2023-05-24T09:52:39.590Z,62.70
2023-05-24T09:55:17.645Z,62.70
2023-05-24T09:57:49.917Z,62.70
2023-05-24T10:00:23.293Z,62.70
2023-05-24T10:03:15.418Z,62.70
2023-05-24T10:05:44.859Z,62.70
2023-05-24T10:08:12.734Z,62.70
2023-05-24T10:10:40.000Z,62.70
2023-05-24T10:13:08.690Z,62.60
2023-05-24T10:15:36.322Z,62.50
2023-05-24T10:18:10.586Z,62.50
2023-05-24T10:20:41.681Z,62.50
2023-05-24T10:23:10.568Z,62.40
2023-05-24T10:25:45.044Z,62.40
2023-05-24T10:28:13.961Z,62.40
2023-05-24T10:30:46.866Z,62.40
2023-05-24T10:33:15.217Z,62.40
2023-05-24T10:35:43.988Z,62.50
2023-05-24T10:38:11.164Z,62.50
2023-05-24T10:40:43.684Z,62.50
2023-05-24T10:43:10.753Z,62.50
2023-05-24T10:45:39.350Z,62.60
2023-05-24T10:48:29.555Z,62.60
2023-05-24T10:50:57.460Z,62.70
2023-05-24T10:53:27.846Z,62.70
2023-05-24T10:55:59.846Z,62.80
2023-05-24T10:58:46.228Z,62.80
2023-05-24T11:01:32.037Z,62.90
2023-05-24T11:04:12.726Z,62.90
2023-05-24T11:06:54.205Z,62.90
2023-05-24T11:09:21.632Z,63.00
2023-05-24T11:11:50.653Z,63.00
2023-05-24T11:14:34.257Z,63.00
2023-05-24T11:17:01.246Z,63.10
2023-05-24T11:19:34.441Z,63.20
2023-05-24T11:22:04.863Z,63.20
2023-05-24T11:24:33.232Z,63.20
2023-05-24T11:27:02.223Z,63.30
2023-05-24T11:29:30.323Z,63.30
2023-05-24T11:32:04.611Z,63.40
2023-05-24T11:34:34.501Z,63.40
2023-05-24T11:37:02.940Z,63.40
2023-05-24T11:39:31.824Z,63.50
2023-05-24T11:41:59.344Z,63.50
2023-05-24T11:44:31.669Z,63.60
2023-05-24T11:47:02.474Z,63.60
2023-05-24T11:49:29.961Z,63.70
2023-05-24T11:51:58.558Z,63.60
2023-05-24T11:54:28.315Z,63.70
2023-05-24T11:56:55.784Z,63.70
2023-05-24T11:59:28.078Z,63.70
2023-05-24T12:02:01.903Z,63.70
2023-05-24T12:04:31.388Z,63.60
2023-05-24T12:06:58.898Z,63.60
2023-05-24T12:09:26.355Z,63.60
2023-05-24T12:11:54.471Z,63.60
2023-05-24T12:14:33.480Z,63.50
2023-05-24T12:17:01.370Z,63.50
2023-05-24T12:19:36.650Z,63.50
2023-05-24T12:22:08.156Z,63.50
2023-05-24T12:24:35.753Z,63.50
2023-05-24T12:27:08.012Z,63.50
2023-05-24T12:29:36.954Z,63.50
2023-05-24T12:32:04.777Z,63.50
2023-05-24T12:34:33.382Z,63.40
2023-05-24T12:37:00.728Z,63.30
2023-05-24T12:39:31.883Z,63.20
2023-05-24T12:42:01.868Z,63.10
2023-05-24T12:44:37.221Z,63.10
2023-05-24T12:47:07.532Z,63.00
2023-05-24T12:49:34.863Z,62.90
2023-05-24T12:52:02.192Z,62.80
2023-05-24T12:54:29.595Z,62.70
2023-05-24T12:56:57.889Z,62.60
2023-05-24T12:59:28.439Z,62.50
2023-05-24T13:01:56.003Z,62.40
2023-05-24T13:04:26.387Z,62.30
2023-05-24T13:06:54.157Z,62.30
2023-05-24T13:09:23.501Z,62.20
2023-05-24T13:11:51.469Z,62.10
2023-05-24T13:14:19.857Z,62.10
2023-05-24T13:16:47.274Z,62.00
2023-05-24T13:19:14.366Z,62.00
2023-05-24T13:21:41.605Z,61.90
2023-05-24T13:24:08.782Z,61.90
2023-05-24T13:26:38.089Z,61.90
2023-05-24T13:31:38.089Z,61.90
2023-05-24T13:34:05.705Z,61.90
2023-05-24T13:36:34.625Z,62.00
2023-05-24T13:39:14.933Z,62.00
2023-05-24T13:41:44.229Z,62.00
2023-05-24T13:44:15.718Z,62.00
2023-05-24T13:46:43.380Z,62.00
2023-05-24T13:49:12.005Z,62.10
2023-05-24T13:51:39.692Z,62.10
2023-05-24T13:54:07.656Z,62.20
2023-05-24T13:56:35.698Z,62.20
2023-05-24T13:59:03.889Z,62.20
2023-05-24T14:01:31.388Z,62.20
2023-05-24T14:03:59.010Z,62.20
2023-05-24T14:06:25.943Z,62.20
2023-05-24T14:08:52.882Z,62.20
2023-05-24T14:11:19.996Z,62.20
2023-05-24T14:16:18.849Z,62.30
2023-05-24T14:18:46.160Z,62.20
2023-05-24T14:21:13.171Z,62.30
2023-05-24T14:23:41.639Z,62.30
2023-05-24T14:26:09.783Z,62.30
2023-05-24T14:28:36.716Z,62.30
2023-05-24T14:31:03.750Z,62.30
2023-05-24T14:33:30.691Z,62.30
2023-05-24T14:35:57.841Z,62.40
2023-05-24T14:38:25.708Z,62.30
2023-05-24T14:40:52.919Z,62.30
2023-05-24T14:43:19.978Z,62.40
2023-05-24T14:45:47.115Z,62.40
2023-05-24T14:48:16.130Z,62.40
2023-05-24T14:50:43.462Z,62.50
2023-05-24T14:53:13.718Z,62.50
2023-05-24T14:55:42.501Z,62.60
2023-05-24T14:58:11.954Z,62.60
2023-05-24T15:00:39.618Z,62.60
2023-05-24T15:03:08.122Z,62.60
2023-05-24T15:05:35.705Z,62.60
2023-05-24T15:08:02.820Z,62.70
2023-05-24T15:10:29.908Z,62.70
2023-05-24T15:12:58.279Z,62.70
2023-05-24T15:15:25.253Z,62.70
2023-05-24T15:17:52.389Z,62.70
2023-05-24T15:20:19.694Z,62.70
2023-05-24T15:22:46.872Z,62.80
2023-05-24T15:25:13.864Z,62.80
2023-05-24T15:27:40.852Z,62.90
2023-05-24T15:30:08.219Z,62.90
2023-05-24T15:32:35.206Z,63.00
2023-05-24T15:35:02.482Z,63.00
2023-05-24T15:37:29.601Z,63.00
2023-05-24T15:39:56.603Z,63.10
2023-05-24T15:42:25.267Z,63.10
2023-05-24T15:44:52.239Z,63.20
2023-05-24T15:47:22.009Z,63.20
2023-05-24T15:49:49.980Z,63.20
2023-05-24T15:52:17.345Z,63.30
2023-05-24T15:54:44.390Z,63.30
2023-05-24T15:57:11.693Z,63.30
2023-05-24T15:59:39.379Z,63.30
2023-05-24T16:02:08.295Z,63.40
2023-05-24T16:04:35.380Z,63.40
2023-05-24T16:07:02.424Z,63.50
2023-05-24T16:09:29.297Z,63.50
2023-05-24T16:11:56.368Z,63.50
2023-05-24T16:14:23.260Z,63.60
2023-05-24T16:16:50.269Z,63.70
2023-05-24T16:19:17.232Z,63.70
2023-05-24T16:21:44.292Z,63.70
2023-05-24T16:24:11.196Z,63.70
2023-05-24T16:26:38.138Z,63.80
2023-05-24T16:29:07.108Z,63.80
2023-05-24T16:31:34.259Z,63.90
2023-05-24T16:34:01.348Z,64.00
2023-05-24T16:36:28.414Z,64.00
2023-05-24T16:38:55.342Z,64.00
2023-05-24T16:41:22.348Z,64.00
2023-05-24T16:43:49.421Z,64.10
2023-05-24T16:46:16.569Z,64.20
2023-05-24T16:48:43.632Z,64.30
2023-05-24T16:51:10.583Z,64.40
2023-05-24T16:53:37.492Z,64.50
2023-05-24T16:56:04.623Z,64.50
2023-05-24T16:58:31.685Z,64.60
2023-05-24T17:00:58.918Z,64.70
2023-05-24T17:03:30.011Z,64.80
2023-05-24T17:06:03.547Z,64.80
2023-05-24T17:08:35.727Z,64.90
2023-05-24T17:11:04.225Z,64.90
2023-05-24T17:13:31.912Z,64.90
2023-05-24T17:16:00.144Z,65.60
2023-05-24T17:18:30.654Z,65.00
2023-05-24T17:20:59.898Z,65.00
2023-05-24T17:23:28.255Z,65.10
2023-05-24T17:25:55.739Z,65.00
2023-05-24T17:28:29.894Z,65.00
2023-05-24T17:30:58.813Z,65.00
2023-05-24T17:33:27.493Z,65.00
2023-05-24T17:35:57.927Z,65.60
2023-05-24T17:38:25.732Z,64.90
2023-05-24T17:40:59.184Z,64.80
2023-05-24T17:43:32.413Z,64.80
2023-05-24T17:46:07.037Z,64.70
2023-05-24T17:48:36.847Z,64.70
2023-05-24T17:51:06.138Z,64.60
2023-05-24T17:53:34.931Z,64.60
2023-05-24T17:56:03.176Z,64.60
2023-05-24T17:58:30.984Z,64.50
2023-05-24T18:00:57.980Z,64.50
2023-05-24T18:03:25.073Z,65.10
2023-05-24T18:05:51.982Z,64.50
2023-05-24T18:08:19.195Z,64.40
2023-05-24T18:10:46.179Z,64.50
2023-05-24T18:13:13.253Z,64.50
2023-05-24T18:15:40.175Z,64.50
2023-05-24T18:18:07.157Z,64.60
2023-05-24T18:20:34.394Z,64.60
2023-05-24T18:23:01.323Z,64.60
2023-05-24T18:25:28.221Z,64.60
2023-05-24T18:27:55.303Z,64.60
2023-05-24T18:30:22.242Z,64.60
2023-05-24T18:33:03.852Z,64.70
2023-05-24T18:35:32.304Z,64.70
2023-05-24T18:37:59.331Z,64.70
2023-05-24T18:40:26.396Z,64.70
2023-05-24T18:42:53.540Z,64.80
2023-05-24T18:45:22.004Z,64.80
2023-05-24T18:47:49.401Z,64.80
2023-05-24T18:50:16.392Z,64.90
2023-05-24T18:52:43.333Z,65.00
2023-05-24T18:55:13.329Z,65.00
2023-05-24T18:57:40.299Z,64.90
2023-05-24T19:00:07.792Z,65.00
2023-05-24T19:02:39.188Z,65.00
2023-05-24T19:05:07.881Z,65.10
2023-05-24T19:07:35.619Z,65.10
2023-05-24T19:10:03.184Z,65.10
2023-05-24T19:12:30.428Z,65.10
2023-05-24T19:14:57.460Z,65.20
2023-05-24T19:17:25.406Z,65.30
2023-05-24T19:19:52.540Z,65.30
2023-05-24T19:22:19.633Z,65.30
2023-05-24T19:24:46.832Z,65.30
2023-05-24T19:27:14.292Z,65.40
2023-05-24T19:29:41.383Z,65.30
2023-05-24T19:32:11.763Z,65.30
2023-05-24T19:34:42.246Z,65.40
2023-05-24T19:37:09.801Z,65.40
2023-05-24T19:39:37.570Z,65.50
2023-05-24T19:42:05.234Z,65.50
2023-05-24T19:44:32.204Z,65.70
2023-05-24T19:46:59.202Z,65.60
2023-05-24T19:49:26.148Z,65.60
2023-05-24T19:51:53.137Z,65.70
2023-05-24T19:54:21.156Z,65.60
2023-05-24T19:56:50.691Z,65.70
2023-05-24T19:59:18.714Z,65.70
2023-05-24T20:01:45.877Z,65.90
2023-05-24T20:04:13.053Z,65.90
2023-05-24T20:06:40.473Z,65.60
2023-05-24T20:09:07.444Z,65.40
2023-05-24T20:11:34.938Z,65.70
2023-05-24T20:14:02.301Z,64.70
2023-05-24T20:16:30.862Z,64.70
2023-05-24T20:18:57.928Z,64.20
2023-05-24T20:21:24.953Z,64.00
2023-05-24T20:23:57.696Z,63.80
2023-05-24T20:26:26.021Z,63.60
2023-05-24T20:28:53.239Z,63.40
2023-05-24T20:31:20.451Z,63.20
2023-05-24T20:33:48.976Z,63.00
2023-05-24T20:36:16.107Z,62.80
2023-05-24T20:38:43.024Z,62.70
2023-05-24T20:41:10.055Z,62.60
2023-05-24T20:43:37.016Z,62.40
2023-05-24T20:46:03.993Z,62.30
2023-05-24T20:48:30.906Z,62.20
2023-05-24T20:50:57.994Z,62.20
2023-05-24T20:53:24.916Z,62.00
2023-05-24T20:55:51.995Z,61.80
2023-05-24T20:58:18.994Z,61.70
2023-05-24T21:00:46.174Z,61.60
2023-05-24T21:03:13.455Z,61.50
2023-05-24T21:05:40.603Z,61.40
2023-05-24T21:08:07.666Z,60.80
2023-05-24T21:10:34.979Z,61.40
2023-05-24T21:13:01.999Z,61.40
2023-05-24T21:15:28.938Z,61.60
2023-05-24T21:17:55.979Z,61.70
2023-05-24T21:20:23.243Z,61.70
2023-05-24T21:22:52.993Z,61.70
2023-05-24T21:25:20.086Z,61.80
2023-05-24T21:27:47.786Z,61.90
2023-05-24T21:30:15.060Z,62.10
2023-05-24T21:32:41.984Z,62.20
2023-05-24T21:35:09.163Z,62.40
2023-05-24T21:37:36.058Z,62.60
2023-05-24T21:40:04.052Z,62.70
2023-05-24T21:42:31.108Z,62.90
2023-05-24T21:44:58.002Z,63.00
2023-05-24T21:47:24.992Z,63.30
2023-05-24T21:49:52.384Z,63.40
2023-05-24T21:52:20.080Z,63.50
2023-05-24T21:54:47.005Z,63.70
2023-05-24T21:57:13.937Z,63.80
2023-05-24T21:59:40.854Z,64.00
2023-05-24T22:02:07.908Z,64.20
2023-05-24T22:04:34.874Z,64.30
2023-05-24T22:07:01.830Z,64.40
2023-05-24T22:09:28.698Z,64.60
2023-05-24T22:11:55.644Z,64.80
2023-05-24T22:14:22.576Z,65.00
2023-05-24T22:16:50.127Z,65.10
2023-05-24T22:19:25.310Z,65.30
2023-05-24T22:21:59.757Z,65.60
2023-05-24T22:24:27.209Z,65.80
2023-05-24T22:26:55.956Z,66.00
2023-05-24T22:29:22.852Z,66.20
2023-05-24T22:31:49.824Z,66.30
2023-05-24T22:34:26.494Z,66.60
2023-05-24T22:36:53.604Z,66.70
2023-05-24T22:39:20.687Z,66.90
2023-05-24T22:41:47.688Z,67.00
2023-05-24T22:44:17.735Z,67.20
2023-05-24T22:46:44.781Z,67.30
2023-05-24T22:49:13.503Z,67.50
2023-05-24T22:51:44.537Z,67.70
2023-05-24T22:54:11.896Z,67.90
2023-05-24T22:56:39.185Z,68.00
2023-05-24T22:59:06.971Z,68.20
2023-05-24T23:01:34.310Z,68.40
2023-05-24T23:04:15.846Z,68.60
2023-05-24T23:06:45.931Z,68.70
2023-05-24T23:09:13.251Z,68.90
2023-05-24T23:11:40.283Z,69.60
2023-05-24T23:14:09.097Z,69.10
2023-05-24T23:16:45.405Z,69.30
2023-05-24T23:19:18.614Z,69.50
2023-05-24T23:21:46.042Z,70.30
2023-05-24T23:24:14.834Z,69.80
2023-05-24T23:26:42.284Z,69.90
2023-05-24T23:29:09.684Z,70.10
2023-05-24T23:31:36.942Z,70.10
2023-05-24T23:34:04.576Z,70.30
2023-05-24T23:36:31.617Z,70.40
2023-05-24T23:38:58.645Z,70.50
2023-05-24T23:41:27.352Z,70.60
2023-05-24T23:43:54.371Z,70.80
2023-05-24T23:46:21.345Z,70.90
2023-05-24T23:48:48.305Z,71.00
2023-05-24T23:51:15.413Z,71.10
2023-05-24T23:53:42.346Z,71.20
2023-05-24T23:56:09.229Z,71.30
2023-05-24T23:58:37.749Z,71.40
